Time;durP1;ratioP1;P1;durP2;ratioP2;P2;SDS_P1;SDS_P2;PMS_P1;PMS_P2;Temp;Humidity;BMP_temperature;BMP_pressure;BME280_temperature;BME280_humidity;BME280_pressure;Samples;Min_cycle;Max_cycle;Signal;HPM_P1;HPM_P2
2023/01/16 00:00:03;;;;;;;0.75;0.40;;;4.90;99.90;;;;;;4995850;28;20018;-68
2023/01/16 00:02:32;;;;;;;0.08;0.08;;;4.90;99.90;;;;;;4996277;28;20042;-68
2023/01/16 00:04:58;;;;;;;1.05;0.60;;;4.90;99.90;;;;;;4995046;28;20022;-68
2023/01/16 00:07:24;;;;;;;3.67;1.77;;;4.90;99.90;;;;;;4995638;28;20376;-67
2023/01/16 00:09:49;;;;;;;2.90;0.65;;;4.80;99.90;;;;;;4996446;28;20073;-68
2023/01/16 00:12:15;;;;;;;1.88;0.45;;;4.80;99.90;;;;;;4978614;28;20456;-68
2023/01/16 00:14:41;;;;;;;2.10;1.10;;;4.80;99.90;;;;;;4995975;28;20022;-68
2023/01/16 00:17:07;;;;;;;0.30;0.30;;;4.90;99.90;;;;;;4978170;28;20537;-68
2023/01/16 00:19:32;;;;;;;0.40;0.40;;;4.90;99.90;;;;;;4996036;28;20061;-68
2023/01/16 00:21:58;;;;;;;6.72;1.33;;;4.70;99.90;;;;;;4995856;28;20026;-68
2023/01/16 00:24:24;;;;;;;1.05;0.95;;;4.80;99.90;;;;;;4995788;28;20045;-68
2023/01/16 00:26:51;;;;;;;3.40;0.93;;;4.80;99.90;;;;;;4995869;28;20490;-67
2023/01/16 00:29:17;;;;;;;2.25;0.60;;;4.90;99.90;;;;;;4995286;28;20557;-68
2023/01/16 00:31:42;;;;;;;4.57;0.63;;;4.90;99.90;;;;;;4995775;28;20037;-68
2023/01/16 00:34:08;;;;;;;0.15;0.15;;;4.90;99.90;;;;;;4995722;28;20121;-68
2023/01/16 00:36:34;;;;;;;6.65;0.50;;;5.10;99.90;;;;;;4995397;28;20038;-69
2023/01/16 00:39:00;;;;;;;0.65;0.52;;;4.90;99.90;;;;;;4995376;28;20041;-68
2023/01/16 00:41:25;;;;;;;0.32;0.30;;;5.00;99.90;;;;;;4995284;28;20022;-68
2023/01/16 00:43:52;;;;;;;1.20;0.25;;;4.90;99.90;;;;;;4995215;28;20419;-67
2023/01/16 00:46:17;;;;;;;0.25;0.25;;;4.90;99.90;;;;;;4995130;28;20042;-68
2023/01/16 00:48:43;;;;;;;0.20;0.20;;;5.00;99.90;;;;;;4995596;28;20022;-68
2023/01/16 00:51:09;;;;;;;0.20;0.20;;;4.90;99.90;;;;;;4995336;28;20030;-68
2023/01/16 00:53:35;;;;;;;2.35;0.15;;;4.90;99.90;;;;;;4995063;28;20431;-68
2023/01/16 00:56:00;;;;;;;3.53;0.55;;;4.90;99.90;;;;;;4993698;28;20030;-68
2023/01/16 00:58:26;;;;;;;7.03;1.00;;;4.90;99.90;;;;;;4994510;28;20384;-68
2023/01/16 01:00:52;;;;;;;0.80;0.43;;;4.90;99.90;;;;;;4995240;28;20018;-67
2023/01/16 01:03:18;;;;;;;0.10;0.10;;;4.90;99.90;;;;;;4994968;28;20041;-67
2023/01/16 01:05:43;;;;;;;6.75;1.63;;;4.80;99.90;;;;;;4995244;28;20019;-68
2023/01/16 01:08:09;;;;;;;0.85;0.30;;;4.80;99.90;;;;;;4995002;28;20093;-67
2023/01/16 01:10:38;;;;;;;0.47;0.47;;;4.70;99.90;;;;;;4994994;28;20027;-68
2023/01/16 01:13:04;;;;;;;1.65;0.63;;;4.70;99.90;;;;;;4994555;28;20038;-68
2023/01/16 01:15:30;;;;;;;1.45;1.35;;;4.70;99.90;;;;;;4994885;28;20127;-68
2023/01/16 01:17:57;;;;;;;0.47;0.20;;;4.80;99.90;;;;;;4977104;28;20054;-67
2023/01/16 01:20:23;;;;;;;0.00;0.00;;;4.80;99.90;;;;;;4994574;28;20077;-68
2023/01/16 01:22:49;;;;;;;1.35;0.70;;;4.80;99.90;;;;;;4994760;28;20022;-68
2023/01/16 01:25:15;;;;;;;0.10;0.10;;;4.80;99.90;;;;;;4994487;28;20064;-68
2023/01/16 01:27:41;;;;;;;0.63;0.43;;;4.70;99.90;;;;;;4994319;28;20484;-68
2023/01/16 01:30:08;;;;;;;0.30;0.30;;;4.70;99.90;;;;;;4994578;28;20030;-67
2023/01/16 01:32:36;;;;;;;1.00;0.65;;;4.70;99.90;;;;;;4994920;28;20104;-68
2023/01/16 01:35:06;;;;;;;0.00;0.00;;;4.70;99.90;;;;;;4994513;28;20019;-68
2023/01/16 01:37:32;;;;;;;0.68;0.68;;;4.60;99.90;;;;;;4994507;28;20397;-68
2023/01/16 01:39:58;;;;;;;0.43;0.38;;;4.70;99.90;;;;;;4994171;28;20437;-68
2023/01/16 01:42:42;;;;;;;0.00;0.00;;;4.70;99.90;;;;;;4994507;28;20054;-68
2023/01/16 01:45:25;;;;;;;0.10;0.10;;;4.80;99.90;;;;;;4994159;28;20101;-69
2023/01/16 01:48:08;;;;;;;0.00;0.00;;;4.80;99.90;;;;;;4980816;28;20027;-68
2023/01/16 01:50:54;;;;;;;0.30;0.30;;;4.70;99.90;;;;;;4982839;28;20038;-68
2023/01/16 01:53:27;;;;;;;0.05;0.05;;;4.70;99.90;;;;;;5007896;28;20034;-68
2023/01/16 01:55:54;;;;;;;0.00;0.00;;;4.60;99.90;;;;;;4993732;28;20073;-68
2023/01/16 01:58:22;;;;;;;0.75;0.63;;;4.60;99.90;;;;;;4993897;28;20030;-68
2023/01/16 02:00:54;;;;;;;0.10;0.10;;;4.60;99.90;;;;;;4994227;28;20118;-69
2023/01/16 02:03:33;;;;;;;0.22;0.22;;;4.60;99.90;;;;;;4993767;28;20105;-68
2023/01/16 02:06:02;;;;;;;0.57;0.47;;;4.60;99.90;;;;;;4992021;28;20042;-68
2023/01/16 02:08:32;;;;;;;0.20;0.20;;;4.70;99.90;;;;;;4993828;28;20026;-68
2023/01/16 02:11:08;;;;;;;8.15;1.45;;;4.60;99.90;;;;;;4993484;28;20027;-68
2023/01/16 02:13:37;;;;;;;0.22;0.22;;;4.70;99.90;;;;;;4994031;28;20068;-68
2023/01/16 02:21:41;;;;;;;7.03;1.20;;;4.80;99.90;;;;;;4993690;28;20073;-68
2023/01/16 02:24:07;;;;;;;0.22;0.10;;;4.80;99.90;;;;;;5008059;23;20043;-63
2023/01/16 02:26:35;;;;;;;0.30;0.30;;;4.80;99.90;;;;;;4993094;28;20096;-63
2023/01/16 02:29:29;;;;;;;1.95;0.95;;;4.80;99.90;;;;;;4993080;28;20023;-63
2023/01/16 02:32:29;;;;;;;0.90;0.80;;;4.90;99.90;;;;;;4981449;28;20041;-65
2023/01/16 02:35:18;;;;;;;1.45;0.52;;;4.90;99.90;;;;;;4992988;28;20041;-66
2023/01/16 02:38:00;;;;;;;1.05;0.95;;;4.90;99.90;;;;;;4975446;28;20066;-63
2023/01/16 02:40:35;;;;;;;0.32;0.32;;;4.90;99.90;;;;;;4981126;28;20034;-64
2023/01/16 02:43:19;;;;;;;0.20;0.20;;;4.90;99.90;;;;;;4994316;28;20118;-70
2023/01/16 02:46:25;;;;;;;0.25;0.25;;;4.90;99.90;;;;;;4993633;28;20046;-63
2023/01/16 02:49:16;;;;;;;0.00;0.00;;;5.00;99.90;;;;;;4987311;28;20381;-64
2023/01/16 02:52:10;;;;;;;0.00;0.00;;;5.00;99.90;;;;;;4993848;28;20038;-71
2023/01/16 02:55:03;;;;;;;0.00;0.00;;;5.10;99.90;;;;;;4993105;28;20042;-74
2023/01/16 02:57:38;;;;;;;0.20;0.20;;;5.20;99.90;;;;;;4981114;28;20114;-63
2023/01/16 03:00:07;;;;;;;0.00;0.00;;;5.20;99.90;;;;;;4993366;28;20054;-65
2023/01/16 03:02:35;;;;;;;0.60;0.20;;;5.10;99.90;;;;;;4993443;28;20030;-67
2023/01/16 03:05:04;;;;;;;3.00;1.13;;;5.10;99.90;;;;;;4966733;28;20035;-63
2023/01/16 03:07:59;;;;;;;0.00;0.00;;;5.20;99.90;;;;;;4975556;28;20034;-72
2023/01/16 03:10:40;;;;;;;0.25;0.25;;;5.30;99.90;;;;;;4993261;28;20030;-74
2023/01/16 03:13:27;;;;;;;0.20;0.20;;;5.20;99.90;;;;;;4993242;28;20034;-63
2023/01/16 03:16:22;;;;;;;0.00;0.00;;;5.30;99.90;;;;;;4992918;28;20115;-62
2023/01/16 03:19:00;;;;;;;0.10;0.10;;;5.30;99.90;;;;;;4993169;28;20085;-73
2023/01/16 03:22:00;;;;;;;0.08;0.08;;;5.20;99.90;;;;;;4992993;28;20069;-63
2023/01/16 03:25:00;;;;;;;0.10;0.10;;;5.30;99.90;;;;;;4992852;28;20038;-62
2023/01/16 03:27:55;;;;;;;0.98;0.45;;;5.20;99.90;;;;;;4992890;28;20042;-62
2023/01/16 03:30:45;;;;;;;0.00;0.00;;;5.30;99.90;;;;;;4993256;28;20027;-62
2023/01/16 03:33:42;;;;;;;1.33;0.35;;;5.30;99.90;;;;;;4993038;28;20030;-63
2023/01/16 03:36:22;;;;;;;0.30;0.30;;;5.40;99.90;;;;;;4992621;28;20169;-62
2023/01/16 03:38:50;;;;;;;0.57;0.57;;;5.40;99.90;;;;;;4975559;28;20181;-62
2023/01/16 03:41:20;;;;;;;0.10;0.10;;;5.40;99.90;;;;;;4996116;28;20034;-63
2023/01/16 03:43:50;;;;;;;1.20;0.20;;;5.40;99.90;;;;;;4996702;28;20093;-63
2023/01/16 03:46:25;;;;;;;0.63;0.32;;;5.40;99.90;;;;;;4996339;28;20082;-63
2023/01/16 03:48:56;;;;;;;0.10;0.10;;;5.50;99.90;;;;;;4979195;28;20034;-63
2023/01/16 03:51:29;;;;;;;0.23;0.23;;;5.50;99.90;;;;;;4996184;28;20045;-62
2023/01/16 03:54:07;;;;;;;0.50;0.22;;;5.50;99.90;;;;;;4996235;28;20038;-62
2023/01/16 03:56:50;;;;;;;0.40;0.40;;;5.60;99.90;;;;;;4996073;28;20046;-62
2023/01/16 03:59:17;;;;;;;0.10;0.10;;;5.60;99.90;;;;;;4996660;28;20038;-63
2023/01/16 04:02:20;;;;;;;0.70;0.38;;;5.70;99.90;;;;;;4962395;28;20054;-62
2023/01/16 04:04:51;;;;;;;0.13;0.13;;;5.70;99.90;;;;;;4955740;28;20034;-62
2023/01/16 04:07:35;;;;;;;3.13;0.30;;;5.70;99.90;;;;;;4996054;28;20423;-62
2023/01/16 04:10:12;;;;;;;1.80;1.25;;;5.70;99.90;;;;;;4996088;28;20386;-63
2023/01/16 04:12:50;;;;;;;2.05;0.82;;;5.70;99.90;;;;;;4978430;28;20494;-62
2023/01/16 04:15:18;;;;;;;0.00;0.00;;;5.70;99.90;;;;;;4996008;28;20204;-63
2023/01/16 04:17:46;;;;;;;0.32;0.20;;;5.80;99.90;;;;;;4995882;28;20038;-62
2023/01/16 04:20:14;;;;;;;0.38;0.38;;;5.80;99.90;;;;;;4978265;28;20513;-63
2023/01/16 04:22:47;;;;;;;0.75;0.50;;;5.90;99.90;;;;;;4995997;28;20050;-67
2023/01/16 04:25:13;;;;;;;0.10;0.10;;;5.80;99.90;;;;;;4978330;28;20038;-63
2023/01/16 04:27:40;;;;;;;0.65;0.35;;;6.00;99.90;;;;;;4995770;28;20042;-62
2023/01/16 04:30:07;;;;;;;0.93;0.50;;;5.90;99.90;;;;;;4995994;28;20031;-64
2023/01/16 04:32:32;;;;;;;0.03;0.03;;;5.90;99.90;;;;;;4995991;28;20473;-63
2023/01/16 04:34:58;;;;;;;0.20;0.20;;;5.90;99.90;;;;;;4962328;28;20121;-63
2023/01/16 04:37:24;;;;;;;1.38;0.43;;;5.90;99.90;;;;;;4995471;28;20129;-68
2023/01/16 04:39:50;;;;;;;1.00;0.30;;;5.90;99.90;;;;;;4996079;28;20081;-64
2023/01/16 04:42:16;;;;;;;0.00;0.00;;;5.90;99.90;;;;;;4995795;28;20035;-64
2023/01/16 04:44:42;;;;;;;0.10;0.10;;;5.90;99.90;;;;;;4995779;28;20026;-62
2023/01/16 04:47:08;;;;;;;0.05;0.05;;;5.90;99.90;;;;;;4995781;28;20069;-62
2023/01/16 04:49:34;;;;;;;4.28;0.47;;;6.10;99.90;;;;;;4995288;28;20058;-63
2023/01/16 04:52:00;;;;;;;0.10;0.10;;;5.90;99.90;;;;;;4995132;28;20028;-63
2023/01/16 04:54:25;;;;;;;0.00;0.00;;;5.90;99.90;;;;;;4995254;28;20129;-63
2023/01/16 04:56:51;;;;;;;0.10;0.10;;;5.80;99.90;;;;;;4995696;28;20026;-63
2023/01/16 04:59:18;;;;;;;0.20;0.20;;;5.90;99.90;;;;;;4961858;28;20373;-62
2023/01/16 05:01:44;;;;;;;4.38;0.35;;;5.90;99.90;;;;;;4995539;28;20481;-63
2023/01/16 05:04:13;;;;;;;4.57;2.25;;;6.00;99.90;;;;;;4977654;28;20376;-65
2023/01/16 05:06:38;;;;;;;5.40;0.57;;;6.00;99.90;;;;;;4977869;28;20117;-62
2023/01/16 05:09:05;;;;;;;0.10;0.10;;;6.00;99.90;;;;;;4978147;28;20085;-62
2023/01/16 05:11:31;;;;;;;0.10;0.10;;;6.00;99.90;;;;;;4977863;28;20404;-62
2023/01/16 05:13:57;;;;;;;0.10;0.10;;;6.00;99.90;;;;;;4994805;28;20023;-62
2023/01/16 05:16:22;;;;;;;0.00;0.00;;;5.90;99.90;;;;;;4995585;28;20033;-63
2023/01/16 05:18:48;;;;;;;0.52;0.17;;;6.00;99.90;;;;;;4995116;28;20112;-63
2023/01/16 05:21:14;;;;;;;9.52;0.60;;;5.90;99.90;;;;;;4996083;28;20486;-63
2023/01/16 05:23:40;;;;;;;0.00;0.00;;;5.80;99.90;;;;;;4995929;28;20065;-62
2023/01/16 05:26:06;;;;;;;0.00;0.00;;;5.90;99.90;;;;;;4994674;28;20482;-62
2023/01/16 05:28:33;;;;;;;0.00;0.00;;;5.90;99.90;;;;;;4977220;28;20038;-62
2023/01/16 05:30:59;;;;;;;1.25;0.77;;;5.90;99.90;;;;;;4994889;28;20033;-62
2023/01/16 05:33:25;;;;;;;4.80;1.23;;;5.80;99.90;;;;;;4977182;28;20117;-62
2023/01/16 05:35:51;;;;;;;0.47;0.47;;;5.70;99.90;;;;;;4994745;28;20069;-65
2023/01/16 05:38:17;;;;;;;8.98;0.80;;;5.80;99.90;;;;;;4995615;28;20030;-62
2023/01/16 05:40:44;;;;;;;0.50;0.50;;;5.80;99.90;;;;;;4979047;28;20034;-63
2023/01/16 05:43:10;;;;;;;3.50;0.70;;;5.80;99.90;;;;;;4996314;28;20030;-63
2023/01/16 05:45:36;;;;;;;0.20;0.20;;;5.80;99.90;;;;;;4995862;28;20018;-63
2023/01/16 05:48:02;;;;;;;0.75;0.57;;;5.90;99.90;;;;;;4995343;28;20434;-63
2023/01/16 05:50:28;;;;;;;0.10;0.10;;;5.90;99.90;;;;;;4977732;28;20540;-63
2023/01/16 05:52:54;;;;;;;0.08;0.08;;;5.80;99.90;;;;;;4960910;28;20057;-63
2023/01/16 05:55:20;;;;;;;0.10;0.10;;;5.90;99.90;;;;;;4994335;28;20069;-63
2023/01/16 05:57:45;;;;;;;0.85;0.30;;;5.90;99.90;;;;;;4994341;28;20042;-69
2023/01/16 06:00:11;;;;;;;0.28;0.20;;;5.80;99.90;;;;;;4994429;28;20521;-62
2023/01/16 06:02:37;;;;;;;0.35;0.32;;;5.90;99.90;;;;;;4994045;28;20061;-73
2023/01/16 06:05:06;;;;;;;0.10;0.10;;;5.90;99.90;;;;;;4976654;28;20101;-71
2023/01/16 06:07:32;;;;;;;0.30;0.30;;;5.80;99.90;;;;;;4995486;28;20031;-62
2023/01/16 06:09:57;;;;;;;1.90;0.80;;;5.80;99.90;;;;;;4995298;28;20027;-63
2023/01/16 06:12:24;;;;;;;0.65;0.30;;;5.80;99.90;;;;;;4995212;28;20176;-62
2023/01/16 06:14:50;;;;;;;7.13;1.25;;;5.80;99.90;;;;;;4994607;28;20036;-74
2023/01/16 06:17:18;;;;;;;2.22;1.08;;;5.80;99.90;;;;;;4993517;28;20109;-73
2023/01/16 06:19:44;;;;;;;2.22;0.52;;;5.80;99.90;;;;;;4977142;28;20399;-62
2023/01/16 06:22:12;;;;;;;3.17;1.23;;;5.70;99.90;;;;;;4977010;28;20042;-62
2023/01/16 06:24:37;;;;;;;1.95;0.60;;;5.70;99.90;;;;;;4994207;28;20038;-62
2023/01/16 06:27:03;;;;;;;4.13;0.93;;;5.70;99.90;;;;;;4994121;28;20526;-63
2023/01/16 06:29:29;;;;;;;9.63;0.65;;;5.70;99.90;;;;;;4993965;28;20068;-72
2023/01/16 06:31:55;;;;;;;1.77;0.55;;;5.70;99.90;;;;;;4994007;28;20026;-64
2023/01/16 06:34:21;;;;;;;1.10;0.68;;;5.70;99.90;;;;;;4994135;28;20037;-62
2023/01/16 06:36:49;;;;;;;0.68;0.50;;;5.60;99.90;;;;;;4994299;28;20027;-73
2023/01/16 06:39:15;;;;;;;1.55;0.30;;;5.60;99.90;;;;;;4976949;28;20034;-62
2023/01/16 06:41:41;;;;;;;1.45;0.80;;;5.50;99.90;;;;;;4994613;28;20124;-69
2023/01/16 06:44:08;;;;;;;0.20;0.20;;;5.50;99.90;;;;;;4994739;28;20586;-65
2023/01/16 06:46:34;;;;;;;2.38;0.65;;;5.60;99.90;;;;;;4975852;28;20018;-62
2023/01/16 06:49:00;;;;;;;1.10;1.00;;;5.60;99.90;;;;;;4993589;28;20026;-63
2023/01/16 06:51:25;;;;;;;0.32;0.32;;;5.60;99.90;;;;;;4993296;28;20034;-63
2023/01/16 06:53:51;;;;;;;0.40;0.20;;;5.60;99.90;;;;;;4993700;28;20081;-62
2023/01/16 06:56:17;;;;;;;0.30;0.28;;;5.60;99.90;;;;;;4992941;28;20042;-63
2023/01/16 06:58:43;;;;;;;1.52;0.30;;;5.50;99.90;;;;;;4975945;28;20149;-65
2023/01/16 07:01:09;;;;;;;6.03;0.45;;;5.60;99.90;;;;;;4975756;28;20478;-62
2023/01/16 07:03:35;;;;;;;0.10;0.10;;;5.50;99.90;;;;;;4993126;28;20058;-64
2023/01/16 07:06:02;;;;;;;2.47;0.22;;;5.50;99.90;;;;;;4993054;28;20018;-73
2023/01/16 07:08:28;;;;;;;1.30;0.45;;;5.50;99.90;;;;;;4975420;28;20121;-62
2023/01/16 07:10:54;;;;;;;0.20;0.10;;;5.50;99.90;;;;;;4993028;28;20053;-62
2023/01/16 07:13:26;;;;;;;0.28;0.20;;;5.50;99.90;;;;;;4992991;28;20368;-62
2023/01/16 07:24:12;;;;;;;1.88;0.80;;;5.50;99.90;;;;;;4996580;28;20045;-63
2023/01/16 07:26:42;;;;;;;0.75;0.70;;;5.50;99.90;;;;;;4996837;28;20387;-63
2023/01/16 07:29:08;;;;;;;0.95;0.47;;;5.50;99.90;;;;;;4996575;28;20037;-64
2023/01/16 07:31:35;;;;;;;0.32;0.30;;;5.50;99.90;;;;;;4979315;28;20026;-63
2023/01/16 07:34:01;;;;;;;0.75;0.38;;;5.50;99.90;;;;;;4996820;28;20113;-63
2023/01/16 07:36:27;;;;;;;0.13;0.13;;;5.50;99.90;;;;;;4996577;28;20101;-62
2023/01/16 07:38:52;;;;;;;0.73;0.10;;;5.50;99.90;;;;;;4979337;28;20042;-62
2023/01/16 07:41:18;;;;;;;0.65;0.20;;;5.50;99.90;;;;;;4996638;28;20022;-67
2023/01/16 07:43:44;;;;;;;1.00;0.50;;;5.50;99.90;;;;;;4996264;28;20054;-62
2023/01/16 07:46:10;;;;;;;3.42;0.75;;;5.40;99.90;;;;;;4996423;28;20022;-62
2023/01/16 07:48:36;;;;;;;0.10;0.10;;;5.40;99.90;;;;;;4983050;28;20565;-63
2023/01/16 07:51:01;;;;;;;0.10;0.10;;;5.40;99.90;;;;;;4987947;28;20018;-62
2023/01/16 07:53:29;;;;;;;0.20;0.20;;;5.50;99.90;;;;;;4991352;28;20041;-62
2023/01/16 07:56:00;;;;;;;0.10;0.10;;;5.40;99.90;;;;;;4971395;28;20038;-62
2023/01/16 07:58:27;;;;;;;1.98;0.77;;;5.40;99.90;;;;;;4973879;28;20475;-63
2023/01/16 08:00:54;;;;;;;0.10;0.10;;;5.50;99.90;;;;;;4987963;28;20023;-63
2023/01/16 08:03:21;;;;;;;0.28;0.20;;;5.40;99.90;;;;;;4954579;28;20476;-63
2023/01/16 08:05:47;;;;;;;0.08;0.08;;;5.40;99.90;;;;;;4987143;28;20081;-63
2023/01/16 08:08:13;;;;;;;1.08;0.68;;;5.40;99.90;;;;;;4971644;28;20034;-63
2023/01/16 08:10:39;;;;;;;0.30;0.30;;;5.40;99.90;;;;;;4991843;28;20085;-63
2023/01/16 08:13:05;;;;;;;2.60;0.35;;;5.40;99.90;;;;;;4974160;28;20035;-63
2023/01/16 08:15:31;;;;;;;0.08;0.08;;;5.50;99.90;;;;;;4990650;28;20030;-63
2023/01/16 08:17:57;;;;;;;1.23;0.30;;;5.40;99.90;;;;;;4989747;28;20442;-63
2023/01/16 08:20:25;;;;;;;0.10;0.10;;;5.50;99.90;;;;;;4974332;28;20022;-63
2023/01/16 08:22:52;;;;;;;0.30;0.30;;;5.50;99.90;;;;;;4991590;28;20080;-63
2023/01/16 08:25:20;;;;;;;0.10;0.10;;;5.50;99.90;;;;;;4991927;28;20384;-63
2023/01/16 08:27:46;;;;;;;1.58;0.40;;;5.60;99.90;;;;;;4972518;28;20113;-63
2023/01/16 08:30:14;;;;;;;0.00;0.00;;;5.60;99.90;;;;;;4992039;28;20181;-63
2023/01/16 08:32:40;;;;;;;0.43;0.30;;;5.50;99.90;;;;;;4991667;28;20034;-63
2023/01/16 08:35:07;;;;;;;0.10;0.10;;;5.50;99.90;;;;;;4991426;28;20027;-71
2023/01/16 08:37:33;;;;;;;11.38;0.60;;;5.50;99.90;;;;;;4973722;28;20042;-63
2023/01/16 08:39:59;;;;;;;0.10;0.10;;;5.50;99.90;;;;;;4988409;28;20173;-64
2023/01/16 08:53:24;;;;;;;0.10;0.10;;;5.70;99.90;;;;;;4967931;28;20487;-63
2023/01/16 08:55:50;;;;;;;0.63;0.20;;;5.70;99.90;;;;;;4987327;28;20259;-66
2023/01/16 08:58:16;;;;;;;0.30;0.30;;;5.70;99.90;;;;;;4990046;28;20038;-66
2023/01/16 09:00:41;;;;;;;0.00;0.00;;;5.70;99.90;;;;;;4992146;28;20578;-63
2023/01/16 09:03:07;;;;;;;0.40;0.40;;;5.70;99.90;;;;;;4991090;28;20031;-66
2023/01/16 09:05:33;;;;;;;0.10;0.10;;;5.70;99.90;;;;;;4973237;28;20029;-65
2023/01/16 09:07:59;;;;;;;0.85;0.38;;;5.80;99.90;;;;;;4986889;28;20081;-62
2023/01/16 09:10:25;;;;;;;0.20;0.10;;;5.90;99.90;;;;;;4990038;28;20028;-64
2023/01/16 09:15:35;;;;;;;0.95;0.22;;;6.00;99.90;;;;;;4990916;28;20031;-63
2023/01/16 09:18:01;;;;;;;0.08;0.08;;;6.20;99.90;;;;;;4990556;28;20026;-68
2023/01/16 09:20:27;;;;;;;2.33;0.45;;;6.30;99.90;;;;;;4991065;28;20030;-63
2023/01/16 09:23:01;;;;;;;3.83;0.30;;;6.20;99.90;;;;;;4990649;28;20018;-63
2023/01/16 09:25:28;;;;;;;1.90;0.45;;;6.10;99.90;;;;;;4992048;28;20038;-63
2023/01/16 09:27:54;;;;;;;0.15;0.15;;;6.00;99.90;;;;;;4993967;28;20395;-70
2023/01/16 09:30:20;;;;;;;6.75;0.75;;;6.10;99.90;;;;;;4977285;28;20023;-63
2023/01/16 09:32:46;;;;;;;0.35;0.32;;;6.10;99.90;;;;;;4994698;28;20030;-63
2023/01/16 09:35:12;;;;;;;0.45;0.30;;;6.10;99.90;;;;;;4975951;28;20515;-62
2023/01/16 09:37:40;;;;;;;0.70;0.30;;;6.10;99.90;;;;;;4994372;28;20467;-63
2023/01/16 09:40:19;;;;;;;2.20;0.30;;;6.10;99.90;;;;;;5001246;28;20018;-63
2023/01/16 09:45:43;;;;;;;1.25;0.38;;;6.10;99.90;;;;;;4994138;28;20065;-63
2023/01/16 09:48:26;;;;;;;0.63;0.30;;;6.10;99.90;;;;;;4994014;28;20101;-63
2023/01/16 09:50:57;;;;;;;0.10;0.10;;;6.00;99.90;;;;;;4994339;28;20113;-67
2023/01/16 09:59:36;;;;;;;0.10;0.10;;;6.00;99.90;;;;;;4980519;28;20042;-63
2023/01/16 10:02:26;;;;;;;0.10;0.10;;;6.00;99.90;;;;;;4963351;28;20033;-63
2023/01/16 10:04:54;;;;;;;0.10;0.10;;;6.00;99.90;;;;;;4980676;28;20069;-63
2023/01/16 10:07:34;;;;;;;5.82;0.57;;;5.90;99.90;;;;;;4989058;28;20018;-63
2023/01/16 10:10:26;;;;;;;0.57;0.57;;;6.00;99.90;;;;;;4989774;28;20045;-63
2023/01/16 10:13:07;;;;;;;1.38;0.35;;;5.90;99.90;;;;;;4973860;28;20040;-63
2023/01/16 10:16:03;;;;;;;0.10;0.10;;;5.90;99.90;;;;;;4989759;28;20360;-73
2023/01/16 10:18:54;;;;;;;0.30;0.30;;;5.80;99.90;;;;;;4989777;28;20479;-70
2023/01/16 10:21:41;;;;;;;0.45;0.28;;;5.80;99.90;;;;;;4978988;28;20058;-63
2023/01/16 10:24:35;;;;;;;0.00;0.00;;;5.90;99.90;;;;;;4989368;28;20121;-65
2023/01/16 10:27:36;;;;;;;0.30;0.20;;;6.00;99.90;;;;;;4981364;28;20097;-65
2023/01/16 10:30:14;;;;;;;0.55;0.43;;;6.10;99.90;;;;;;4984892;28;20034;-75
2023/01/16 10:32:54;;;;;;;2.28;2.08;;;6.20;99.90;;;;;;4986188;28;20327;-73
2023/01/16 10:35:32;;;;;;;0.10;0.10;;;6.20;99.90;;;;;;4972142;28;20038;-70
2023/01/16 10:38:24;;;;;;;0.00;0.00;;;6.20;99.90;;;;;;4971898;28;20042;-74
2023/01/16 10:40:54;;;;;;;0.10;0.10;;;6.10;99.90;;;;;;4983367;28;20025;-73
2023/01/16 10:49:27;;;;;;;0.22;0.22;;;6.00;99.90;;;;;;4989188;28;20023;-63
2023/01/16 10:51:55;;;;;;;0.25;0.25;;;6.00;99.90;;;;;;4973863;28;20483;-75
2023/01/16 10:54:21;;;;;;;0.98;0.13;;;6.00;99.90;;;;;;4975415;28;20052;-63
2023/01/16 10:56:47;;;;;;;0.80;0.63;;;6.00;99.90;;;;;;4975833;28;20037;-74
2023/01/16 10:59:14;;;;;;;0.90;0.55;;;6.10;99.90;;;;;;4990827;28;20113;-74
2023/01/16 11:01:41;;;;;;;0.13;0.13;;;6.20;99.90;;;;;;4992184;28;20534;-65
2023/01/16 11:04:10;;;;;;;0.08;0.08;;;6.20;99.90;;;;;;4993595;28;20136;-67
2023/01/16 11:06:40;;;;;;;1.70;0.38;;;6.20;99.90;;;;;;4992746;28;20464;-65
2023/01/16 11:09:14;;;;;;;0.10;0.10;;;6.30;99.90;;;;;;4993608;28;20469;-74
2023/01/16 11:20:03;;;;;;;0.35;0.35;;;6.40;99.90;;;;;;4993189;28;20054;-63
2023/01/16 11:22:28;;;;;;;0.30;0.22;;;6.30;99.90;;;;;;4984809;28;20029;-65
2023/01/16 11:24:58;;;;;;;0.13;0.13;;;6.40;99.90;;;;;;4992508;28;20043;-63
2023/01/16 11:27:28;;;;;;;0.10;0.10;;;6.40;99.90;;;;;;4991007;28;20031;-63
2023/01/16 11:29:57;;;;;;;0.00;0.00;;;6.30;99.90;;;;;;4992901;28;20037;-62
2023/01/16 11:32:24;;;;;;;0.20;0.20;;;6.30;99.90;;;;;;4992604;28;20022;-75
2023/01/16 11:34:55;;;;;;;0.10;0.10;;;6.30;99.90;;;;;;4975156;28;20049;-63
2023/01/16 11:37:22;;;;;;;0.08;0.08;;;6.40;99.90;;;;;;4992759;28;20498;-74
2023/01/16 11:39:51;;;;;;;0.15;0.15;;;6.30;99.90;;;;;;4992851;28;20045;-75
2023/01/16 11:48:22;;;;;;;0.08;0.08;;;6.50;99.90;;;;;;4975152;28;20038;-64
2023/01/16 11:51:11;;;;;;;0.00;0.00;;;6.50;99.90;;;;;;4992488;28;20041;-63
2023/01/16 11:53:37;;;;;;;0.30;0.30;;;6.50;99.90;;;;;;4992491;28;20046;-63
2023/01/16 11:56:21;;;;;;;0.75;0.13;;;6.50;99.90;;;;;;4992659;28;20369;-63
2023/01/16 11:59:06;;;;;;;0.00;0.00;;;6.40;99.90;;;;;;4992550;28;20042;-62
2023/01/16 12:05:53;;;;;;;0.10;0.10;;;6.70;99.90;;;;;;4995706;28;20030;-63
2023/01/16 12:07:57;;;;;;;0.10;0.10;;;7.00;99.90;;;;;;4978235;28;20058;-75
2023/01/16 12:10:52;;;;;;;0.67;0.53;;;7.60;99.90;;;;;;4994702;28;20497;-64
2023/01/16 12:16:31;;;;;;;0.88;0.50;;;8.90;99.90;;;;;;4995879;28;20026;-63
2023/01/16 12:19:02;;;;;;;0.20;0.20;;;9.10;99.90;;;;;;4976952;28;20158;-63
2023/01/16 12:21:44;;;;;;;1.88;0.40;;;8.90;99.90;;;;;;4984407;28;20034;-76
2023/01/16 12:24:18;;;;;;;2.03;0.82;;;8.60;99.90;;;;;;4978140;28;20026;-62
2023/01/16 12:27:12;;;;;;;2.83;2.65;;;8.30;99.90;;;;;;4995993;28;20049;-75
2023/01/16 12:30:16;;;;;;;0.08;0.08;;;8.50;99.90;;;;;;4995688;28;20101;-63
2023/01/16 12:32:48;;;;;;;0.17;0.17;;;8.50;99.90;;;;;;4995345;28;20130;-71
2023/01/16 12:35:34;;;;;;;0.10;0.10;;;8.30;99.90;;;;;;4995734;28;20113;-63
2023/01/16 12:38:05;;;;;;;0.10;0.10;;;8.10;99.90;;;;;;4995473;28;20057;-63
2023/01/16 12:40:43;;;;;;;0.10;0.10;;;7.70;99.90;;;;;;4995720;28;20041;-74
2023/01/16 12:43:19;;;;;;;0.20;0.20;;;7.80;99.90;;;;;;4995470;28;20105;-62
2023/01/16 12:45:52;;;;;;;0.00;0.00;;;7.50;99.90;;;;;;4995490;28;20026;-63
2023/01/16 12:48:56;;;;;;;0.10;0.10;;;7.40;99.90;;;;;;4995119;28;20027;-62
2023/01/16 12:52:14;;;;;;;0.00;0.00;;;7.30;99.90;;;;;;4995413;28;20422;-62
2023/01/16 12:55:02;;;;;;;0.25;0.13;;;7.40;99.90;;;;;;4992527;28;20089;-74
2023/01/16 12:57:42;;;;;;;0.08;0.08;;;7.30;99.90;;;;;;4995489;28;20034;-75
2023/01/16 13:00:23;;;;;;;0.10;0.10;;;7.30;99.90;;;;;;4977789;28;20041;-62
2023/01/16 13:03:09;;;;;;;0.00;0.00;;;7.10;99.90;;;;;;4995054;28;20036;-63
2023/01/16 13:05:38;;;;;;;2.22;0.55;;;7.20;99.90;;;;;;4995095;28;20389;-70
2023/01/16 13:08:33;;;;;;;0.57;0.57;;;7.10;99.90;;;;;;4995123;28;20027;-63
2023/01/16 13:14:12;;;;;;;0.22;0.20;;;7.10;99.90;;;;;;4951514;29;20023;-64
2023/01/16 13:17:06;;;;;;;0.10;0.10;;;7.20;99.90;;;;;;4953718;29;20392;-75
2023/01/16 13:19:37;;;;;;;2.17;0.55;;;7.10;99.90;;;;;;4968201;28;20054;-75
2023/01/16 13:22:38;;;;;;;0.10;0.10;;;7.10;99.90;;;;;;4978005;28;20103;-75
2023/01/16 13:25:28;;;;;;;0.25;0.20;;;7.20;99.90;;;;;;4995771;28;20046;-74
2023/01/16 13:28:04;;;;;;;0.70;0.52;;;7.10;99.90;;;;;;4996146;28;20081;-75
2023/01/16 13:30:30;;;;;;;0.00;0.00;;;7.20;99.90;;;;;;4977858;28;20104;-63
2023/01/16 13:33:02;;;;;;;0.00;0.00;;;7.40;99.90;;;;;;4994725;28;20475;-63
2023/01/16 13:35:46;;;;;;;0.03;0.03;;;7.50;99.90;;;;;;4995001;28;20038;-73
2023/01/16 13:38:32;;;;;;;0.00;0.00;;;7.40;99.90;;;;;;4994343;28;20042;-63
2023/01/16 13:41:21;;;;;;;0.05;0.05;;;7.30;99.90;;;;;;4976717;28;20033;-66
2023/01/16 13:46:50;;;;;;;0.70;0.22;;;7.40;99.90;;;;;;4994188;28;20369;-74
2023/01/16 13:49:22;;;;;;;0.13;0.13;;;7.50;99.90;;;;;;4994262;28;20038;-63
2023/01/16 13:51:50;;;;;;;0.50;0.38;;;7.50;99.90;;;;;;4994139;28;20038;-75
2023/01/16 13:54:23;;;;;;;2.78;0.90;;;7.50;99.90;;;;;;4993844;28;20026;-63
2023/01/16 13:56:58;;;;;;;8.35;0.30;;;7.50;99.90;;;;;;4994030;28;20045;-63
2023/01/16 13:59:40;;;;;;;0.38;0.38;;;7.50;99.90;;;;;;4993749;28;20081;-63
2023/01/16 14:02:36;;;;;;;4.50;0.43;;;7.30;99.90;;;;;;4994112;28;20027;-66
2023/01/16 14:05:06;;;;;;;0.00;0.00;;;7.30;99.90;;;;;;4976340;28;20031;-63
2023/01/16 14:10:58;;;;;;;3.10;0.73;;;7.40;99.90;;;;;;4993886;28;20049;-66
2023/01/16 14:13:37;;;;;;;0.10;0.10;;;7.20;99.90;;;;;;4963823;28;20501;-74
2023/01/16 14:16:30;;;;;;;0.00;0.00;;;7.40;99.90;;;;;;4993255;28;20034;-63
2023/01/16 14:18:56;;;;;;;6.65;0.77;;;7.40;99.90;;;;;;4993621;28;20057;-63
2023/01/16 14:21:28;;;;;;;0.05;0.05;;;7.30;99.90;;;;;;4976438;28;20491;-75
2023/01/16 14:24:02;;;;;;;2.10;1.38;;;7.40;99.90;;;;;;4993489;28;20459;-75
2023/01/16 14:26:47;;;;;;;0.10;0.10;;;7.40;99.90;;;;;;4979751;28;20137;-75
2023/01/16 14:29:33;;;;;;;0.30;0.30;;;7.40;99.90;;;;;;4993208;28;20033;-63
2023/01/16 14:32:26;;;;;;;0.10;0.10;;;7.40;99.90;;;;;;4993016;28;20087;-63
2023/01/16 14:34:57;;;;;;;0.55;0.45;;;7.30;99.90;;;;;;4991078;28;20500;-63
2023/01/16 14:37:31;;;;;;;0.32;0.32;;;7.20;99.90;;;;;;4993698;28;20073;-75